sensor_id;sensor_type;location;lat;lon;timestamp;P1;durP1;ratioP1;P2;durP2;ratioP2
40595;SDS011;26304;48.794;9.820;2023-06-22T00:03:36;6.45;;;5.95;;
40595;SDS011;26304;48.794;9.820;2023-06-22T00:09:19;6.78;;;5.95;;
40595;SDS011;26304;48.794;9.820;2023-06-22T00:15:03;6.00;;;5.55;;
40595;SDS011;26304;48.794;9.820;2023-06-22T00:20:46;7.13;;;6.28;;
40595;SDS011;26304;48.794;9.820;2023-06-22T00:26:29;6.78;;;6.13;;
40595;SDS011;26304;48.794;9.820;2023-06-22T00:32:13;6.90;;;6.30;;
40595;SDS011;26304;48.794;9.820;2023-06-22T00:37:55;6.88;;;6.25;;
40595;SDS011;26304;48.794;9.820;2023-06-22T00:43:42;6.95;;;6.30;;
40595;SDS011;26304;48.794;9.820;2023-06-22T00:49:26;5.70;;;5.20;;
40595;SDS011;26304;48.794;9.820;2023-06-22T00:55:09;6.30;;;5.70;;
40595;SDS011;26304;48.794;9.820;2023-06-22T01:00:51;6.32;;;5.22;;
40595;SDS011;26304;48.794;9.820;2023-06-22T01:06:38;7.72;;;6.55;;
40595;SDS011;26304;48.794;9.820;2023-06-22T01:12:27;6.03;;;5.53;;
40595;SDS011;26304;48.794;9.820;2023-06-22T01:18:14;6.03;;;5.18;;
40595;SDS011;26304;48.794;9.820;2023-06-22T01:24:10;6.50;;;5.55;;
40595;SDS011;26304;48.794;9.820;2023-06-22T01:30:02;6.78;;;6.15;;
40595;SDS011;26304;48.794;9.820;2023-06-22T01:35:46;5.97;;;5.47;;
40595;SDS011;26304;48.794;9.820;2023-06-22T01:41:29;6.35;;;5.72;;
40595;SDS011;26304;48.794;9.820;2023-06-22T01:47:16;7.65;;;6.55;;
40595;SDS011;26304;48.794;9.820;2023-06-22T01:52:59;6.68;;;5.90;;
40595;SDS011;26304;48.794;9.820;2023-06-22T01:58:45;6.43;;;5.93;;
40595;SDS011;26304;48.794;9.820;2023-06-22T02:04:34;7.22;;;6.53;;
40595;SDS011;26304;48.794;9.820;2023-06-22T02:10:24;6.93;;;6.25;;
40595;SDS011;26304;48.794;9.820;2023-06-22T02:16:09;6.93;;;6.32;;
40595;SDS011;26304;48.794;9.820;2023-06-22T02:21:54;6.15;;;5.65;;
40595;SDS011;26304;48.794;9.820;2023-06-22T02:27:37;6.63;;;6.05;;
40595;SDS011;26304;48.794;9.820;2023-06-22T02:33:21;5.93;;;5.50;;
40595;SDS011;26304;48.794;9.820;2023-06-22T02:39:05;7.35;;;5.63;;
40595;SDS011;26304;48.794;9.820;2023-06-22T02:44:48;6.57;;;5.90;;
40595;SDS011;26304;48.794;9.820;2023-06-22T02:50:31;6.68;;;6.07;;
40595;SDS011;26304;48.794;9.820;2023-06-22T02:56:14;7.85;;;6.50;;
40595;SDS011;26304;48.794;9.820;2023-06-22T03:01:58;6.80;;;6.28;;
40595;SDS011;26304;48.794;9.820;2023-06-22T03:07:41;7.05;;;5.95;;
40595;SDS011;26304;48.794;9.820;2023-06-22T03:13:26;6.80;;;6.20;;
40595;SDS011;26304;48.794;9.820;2023-06-22T03:19:09;7.50;;;6.82;;
40595;SDS011;26304;48.794;9.820;2023-06-22T03:24:52;7.57;;;6.88;;
40595;SDS011;26304;48.794;9.820;2023-06-22T03:30:36;9.45;;;7.35;;
40595;SDS011;26304;48.794;9.820;2023-06-22T03:36:18;8.80;;;8.00;;
40595;SDS011;26304;48.794;9.820;2023-06-22T03:42:01;11.00;;;9.90;;
40595;SDS011;26304;48.794;9.820;2023-06-22T03:47:45;9.70;;;8.73;;
40595;SDS011;26304;48.794;9.820;2023-06-22T03:53:27;9.73;;;8.85;;
40595;SDS011;26304;48.794;9.820;2023-06-22T03:59:10;10.57;;;9.65;;
40595;SDS011;26304;48.794;9.820;2023-06-22T04:04:54;9.23;;;8.50;;
40595;SDS011;26304;48.794;9.820;2023-06-22T04:10:36;9.13;;;8.40;;
40595;SDS011;26304;48.794;9.820;2023-06-22T04:16:19;10.15;;;9.25;;
40595;SDS011;26304;48.794;9.820;2023-06-22T04:22:03;9.90;;;8.88;;
40595;SDS011;26304;48.794;9.820;2023-06-22T04:27:48;9.88;;;8.98;;
40595;SDS011;26304;48.794;9.820;2023-06-22T04:33:30;11.23;;;10.07;;
40595;SDS011;26304;48.794;9.820;2023-06-22T04:39:15;11.07;;;9.93;;
40595;SDS011;26304;48.794;9.820;2023-06-22T04:44:57;10.93;;;9.98;;
40595;SDS011;26304;48.794;9.820;2023-06-22T04:50:40;10.75;;;9.57;;
40595;SDS011;26304;48.794;9.820;2023-06-22T04:56:24;9.65;;;8.85;;
40595;SDS011;26304;48.794;9.820;2023-06-22T05:02:09;9.93;;;8.88;;
40595;SDS011;26304;48.794;9.820;2023-06-22T05:07:51;13.52;;;10.13;;
40595;SDS011;26304;48.794;9.820;2023-06-22T05:13:37;11.77;;;9.60;;
40595;SDS011;26304;48.794;9.820;2023-06-22T05:19:20;10.82;;;8.07;;
40595;SDS011;26304;48.794;9.820;2023-06-22T05:25:03;8.65;;;7.85;;
40595;SDS011;26304;48.794;9.820;2023-06-22T05:30:48;8.57;;;7.30;;
40595;SDS011;26304;48.794;9.820;2023-06-22T05:36:31;7.57;;;5.97;;
40595;SDS011;26304;48.794;9.820;2023-06-22T05:42:13;7.07;;;5.93;;
40595;SDS011;26304;48.794;9.820;2023-06-22T05:47:57;6.40;;;5.78;;
40595;SDS011;26304;48.794;9.820;2023-06-22T05:53:40;7.88;;;5.75;;
40595;SDS011;26304;48.794;9.820;2023-06-22T05:59:22;6.30;;;5.72;;
40595;SDS011;26304;48.794;9.820;2023-06-22T06:05:07;6.32;;;5.72;;
40595;SDS011;26304;48.794;9.820;2023-06-22T06:10:49;5.43;;;4.85;;
40595;SDS011;26304;48.794;9.820;2023-06-22T06:16:33;5.47;;;5.05;;
40595;SDS011;26304;48.794;9.820;2023-06-22T06:22:17;5.70;;;5.25;;
40595;SDS011;26304;48.794;9.820;2023-06-22T06:28:01;5.00;;;4.60;;
40595;SDS011;26304;48.794;9.820;2023-06-22T06:33:45;5.53;;;5.03;;
40595;SDS011;26304;48.794;9.820;2023-06-22T06:39:29;5.00;;;4.60;;
40595;SDS011;26304;48.794;9.820;2023-06-22T06:45:12;5.65;;;4.97;;
40595;SDS011;26304;48.794;9.820;2023-06-22T06:50:55;4.97;;;4.43;;
40595;SDS011;26304;48.794;9.820;2023-06-22T06:56:39;5.82;;;4.30;;
40595;SDS011;26304;48.794;9.820;2023-06-22T07:02:21;5.05;;;4.65;;
40595;SDS011;26304;48.794;9.820;2023-06-22T07:08:04;4.60;;;4.30;;
40595;SDS011;26304;48.794;9.820;2023-06-22T07:13:48;4.78;;;4.38;;
40595;SDS011;26304;48.794;9.820;2023-06-22T07:19:32;4.85;;;4.45;;
40595;SDS011;26304;48.794;9.820;2023-06-22T07:25:15;4.63;;;4.32;;
40595;SDS011;26304;48.794;9.820;2023-06-22T07:30:59;5.18;;;4.55;;
40595;SDS011;26304;48.794;9.820;2023-06-22T07:36:42;4.85;;;4.22;;
40595;SDS011;26304;48.794;9.820;2023-06-22T07:42:25;4.70;;;4.38;;
40595;SDS011;26304;48.794;9.820;2023-06-22T07:48:09;5.05;;;4.65;;
40595;SDS011;26304;48.794;9.820;2023-06-22T07:53:51;4.40;;;4.00;;
40595;SDS011;26304;48.794;9.820;2023-06-22T07:59:34;4.43;;;4.03;;
40595;SDS011;26304;48.794;9.820;2023-06-22T08:05:19;3.85;;;3.55;;
40595;SDS011;26304;48.794;9.820;2023-06-22T08:11:01;4.18;;;3.88;;
40595;SDS011;26304;48.794;9.820;2023-06-22T08:16:44;3.80;;;3.60;;
40595;SDS011;26304;48.794;9.820;2023-06-22T08:22:28;4.15;;;3.85;;
40595;SDS011;26304;48.794;9.820;2023-06-22T08:28:11;4.00;;;3.70;;
40595;SDS011;26304;48.794;9.820;2023-06-22T08:33:54;3.85;;;3.55;;
40595;SDS011;26304;48.794;9.820;2023-06-22T08:39:38;4.07;;;3.78;;
40595;SDS011;26304;48.794;9.820;2023-06-22T08:45:21;3.50;;;3.30;;
40595;SDS011;26304;48.794;9.820;2023-06-22T08:51:04;3.97;;;3.60;;
40595;SDS011;26304;48.794;9.820;2023-06-22T08:56:48;3.90;;;3.60;;
40595;SDS011;26304;48.794;9.820;2023-06-22T09:02:31;3.60;;;3.30;;
40595;SDS011;26304;48.794;9.820;2023-06-22T09:08:13;4.13;;;3.83;;
40595;SDS011;26304;48.794;9.820;2023-06-22T09:13:57;3.45;;;3.25;;
40595;SDS011;26304;48.794;9.820;2023-06-22T09:19:40;3.85;;;3.55;;
40595;SDS011;26304;48.794;9.820;2023-06-22T09:25:23;3.83;;;3.53;;
40595;SDS011;26304;48.794;9.820;2023-06-22T09:31:07;4.05;;;3.75;;
40595;SDS011;26304;48.794;9.820;2023-06-22T09:36:49;3.67;;;3.45;;
40595;SDS011;26304;48.794;9.820;2023-06-22T09:42:32;4.05;;;3.75;;
40595;SDS011;26304;48.794;9.820;2023-06-22T09:48:16;3.60;;;3.30;;
40595;SDS011;26304;48.794;9.820;2023-06-22T09:53:59;3.58;;;3.38;;
40595;SDS011;26304;48.794;9.820;2023-06-22T09:59:41;3.50;;;3.30;;
40595;SDS011;26304;48.794;9.820;2023-06-22T10:05:25;3.63;;;3.33;;
40595;SDS011;26304;48.794;9.820;2023-06-22T10:11:08;3.42;;;3.22;;
40595;SDS011;26304;48.794;9.820;2023-06-22T10:16:51;3.10;;;2.90;;
40595;SDS011;26304;48.794;9.820;2023-06-22T10:22:36;4.32;;;3.70;;
40595;SDS011;26304;48.794;9.820;2023-06-22T10:28:18;4.00;;;3.70;;
40595;SDS011;26304;48.794;9.820;2023-06-22T10:34:01;3.55;;;3.25;;
40595;SDS011;26304;48.794;9.820;2023-06-22T10:39:45;4.10;;;3.70;;
40595;SDS011;26304;48.794;9.820;2023-06-22T10:45:27;3.72;;;3.42;;
40595;SDS011;26304;48.794;9.820;2023-06-22T10:51:10;3.70;;;3.40;;
40595;SDS011;26304;48.794;9.820;2023-06-22T10:56:54;3.95;;;3.53;;
40595;SDS011;26304;48.794;9.820;2023-06-22T11:02:37;3.78;;;3.42;;
40595;SDS011;26304;48.794;9.820;2023-06-22T11:08:19;3.40;;;3.20;;
40595;SDS011;26304;48.794;9.820;2023-06-22T11:14:03;24.38;;;4.90;;
40595;SDS011;26304;48.794;9.820;2023-06-22T11:19:45;6.57;;;3.30;;
40595;SDS011;26304;48.794;9.820;2023-06-22T11:25:28;5.80;;;3.38;;
40595;SDS011;26304;48.794;9.820;2023-06-22T11:31:12;8.38;;;3.97;;
40595;SDS011;26304;48.794;9.820;2023-06-22T11:36:55;5.30;;;4.05;;
40595;SDS011;26304;48.794;9.820;2023-06-22T11:42:37;6.72;;;3.80;;
40595;SDS011;26304;48.794;9.820;2023-06-22T11:48:21;5.53;;;4.18;;
40595;SDS011;26304;48.794;9.820;2023-06-22T11:54:03;3.97;;;3.45;;
40595;SDS011;26304;48.794;9.820;2023-06-22T11:59:46;5.85;;;4.00;;
40595;SDS011;26304;48.794;9.820;2023-06-22T12:05:30;4.47;;;3.53;;
40595;SDS011;26304;48.794;9.820;2023-06-22T12:11:13;4.78;;;3.30;;
40595;SDS011;26304;48.794;9.820;2023-06-22T12:16:55;6.57;;;4.25;;
40595;SDS011;26304;48.794;9.820;2023-06-22T12:22:40;3.92;;;3.53;;
40595;SDS011;26304;48.794;9.820;2023-06-22T12:28:23;5.55;;;3.95;;
40595;SDS011;26304;48.794;9.820;2023-06-22T12:34:05;7.68;;;4.57;;
40595;SDS011;26304;48.794;9.820;2023-06-22T12:39:49;10.13;;;4.72;;
40595;SDS011;26304;48.794;9.820;2023-06-22T12:45:32;8.52;;;4.68;;
40595;SDS011;26304;48.794;9.820;2023-06-22T12:51:19;9.15;;;5.03;;
40595;SDS011;26304;48.794;9.820;2023-06-22T12:57:04;7.78;;;5.53;;
40595;SDS011;26304;48.794;9.820;2023-06-22T13:02:47;8.07;;;4.90;;
40595;SDS011;26304;48.794;9.820;2023-06-22T13:08:30;8.02;;;4.72;;
40595;SDS011;26304;48.794;9.820;2023-06-22T13:14:14;5.80;;;4.47;;
40595;SDS011;26304;48.794;9.820;2023-06-22T13:19:57;7.65;;;4.60;;
40595;SDS011;26304;48.794;9.820;2023-06-22T13:25:39;5.97;;;4.50;;
40595;SDS011;26304;48.794;9.820;2023-06-22T13:31:23;5.40;;;4.90;;
40595;SDS011;26304;48.794;9.820;2023-06-22T13:37:06;5.88;;;4.35;;
40595;SDS011;26304;48.794;9.820;2023-06-22T13:42:48;5.88;;;4.30;;
40595;SDS011;26304;48.794;9.820;2023-06-22T13:48:32;6.15;;;4.43;;
40595;SDS011;26304;48.794;9.820;2023-06-22T13:54:15;6.05;;;4.10;;
40595;SDS011;26304;48.794;9.820;2023-06-22T13:59:58;6.05;;;4.10;;
40595;SDS011;26304;48.794;9.820;2023-06-22T14:05:42;5.10;;;4.57;;
40595;SDS011;26304;48.794;9.820;2023-06-22T14:11:25;4.72;;;4.22;;
40595;SDS011;26304;48.794;9.820;2023-06-22T14:17:07;7.68;;;4.70;;
40595;SDS011;26304;48.794;9.820;2023-06-22T14:22:51;5.05;;;4.20;;
40595;SDS011;26304;48.794;9.820;2023-06-22T14:28:34;5.13;;;4.13;;
40595;SDS011;26304;48.794;9.820;2023-06-22T14:34:16;5.60;;;4.10;;
40595;SDS011;26304;48.794;9.820;2023-06-22T14:40:00;5.80;;;4.43;;
40595;SDS011;26304;48.794;9.820;2023-06-22T14:45:44;7.30;;;4.32;;
40595;SDS011;26304;48.794;9.820;2023-06-22T14:51:26;5.15;;;4.35;;
40595;SDS011;26304;48.794;9.820;2023-06-22T14:57:10;6.43;;;4.15;;
40595;SDS011;26304;48.794;9.820;2023-06-22T15:02:53;4.72;;;4.00;;
40595;SDS011;26304;48.794;9.820;2023-06-22T15:08:36;4.65;;;3.72;;
40595;SDS011;26304;48.794;9.820;2023-06-22T15:14:20;4.72;;;3.72;;
40595;SDS011;26304;48.794;9.820;2023-06-22T15:20:03;4.05;;;3.75;;
40595;SDS011;26304;48.794;9.820;2023-06-22T15:25:46;4.05;;;3.65;;
40595;SDS011;26304;48.794;9.820;2023-06-22T15:31:30;3.95;;;3.65;;
40595;SDS011;26304;48.794;9.820;2023-06-22T15:37:12;8.32;;;3.95;;
40595;SDS011;26304;48.794;9.820;2023-06-22T15:42:55;6.18;;;4.00;;
40595;SDS011;26304;48.794;9.820;2023-06-22T15:48:39;8.27;;;3.47;;
40595;SDS011;26304;48.794;9.820;2023-06-22T15:54:21;7.78;;;3.85;;
40595;SDS011;26304;48.794;9.820;2023-06-22T16:00:04;8.82;;;4.30;;
40595;SDS011;26304;48.794;9.820;2023-06-22T16:05:50;17.15;;;4.88;;
40595;SDS011;26304;48.794;9.820;2023-06-22T16:11:32;12.52;;;4.22;;
40595;SDS011;26304;48.794;9.820;2023-06-22T16:17:14;7.30;;;3.97;;
40595;SDS011;26304;48.794;9.820;2023-06-22T16:22:58;4.90;;;4.22;;
40595;SDS011;26304;48.794;9.820;2023-06-22T16:28:41;9.05;;;4.20;;
40595;SDS011;26304;48.794;9.820;2023-06-22T16:34:23;7.78;;;4.60;;
40595;SDS011;26304;48.794;9.820;2023-06-22T16:40:08;7.53;;;4.03;;
40595;SDS011;26304;48.794;9.820;2023-06-22T16:45:51;6.15;;;3.58;;
40595;SDS011;26304;48.794;9.820;2023-06-22T16:51:34;8.20;;;3.92;;
40595;SDS011;26304;48.794;9.820;2023-06-22T16:57:18;10.75;;;4.35;;
40595;SDS011;26304;48.794;9.820;2023-06-22T17:03:02;3.75;;;3.28;;
40595;SDS011;26304;48.794;9.820;2023-06-22T17:08:50;4.75;;;3.63;;
40595;SDS011;26304;48.794;9.820;2023-06-22T17:14:34;9.00;;;3.88;;
40595;SDS011;26304;48.794;9.820;2023-06-22T17:20:18;5.53;;;3.67;;
40595;SDS011;26304;48.794;9.820;2023-06-22T17:26:00;5.05;;;3.45;;
40595;SDS011;26304;48.794;9.820;2023-06-22T17:31:46;5.93;;;3.30;;
40595;SDS011;26304;48.794;9.820;2023-06-22T17:37:32;4.57;;;3.28;;
40595;SDS011;26304;48.794;9.820;2023-06-22T17:43:18;5.25;;;3.53;;
40595;SDS011;26304;48.794;9.820;2023-06-22T17:49:02;7.85;;;3.30;;
40595;SDS011;26304;48.794;9.820;2023-06-22T17:54:50;4.85;;;3.30;;
40595;SDS011;26304;48.794;9.820;2023-06-22T18:00:33;3.70;;;3.22;;
40595;SDS011;26304;48.794;9.820;2023-06-22T18:06:18;10.20;;;3.70;;
40595;SDS011;26304;48.794;9.820;2023-06-22T18:12:02;5.75;;;3.53;;
40595;SDS011;26304;48.794;9.820;2023-06-22T18:17:47;7.10;;;3.58;;
40595;SDS011;26304;48.794;9.820;2023-06-22T18:23:33;9.32;;;3.70;;
40595;SDS011;26304;48.794;9.820;2023-06-22T18:29:17;6.95;;;3.92;;
40595;SDS011;26304;48.794;9.820;2023-06-22T18:35:02;7.32;;;3.33;;
40595;SDS011;26304;48.794;9.820;2023-06-22T18:40:49;5.50;;;3.50;;
40595;SDS011;26304;48.794;9.820;2023-06-22T18:46:33;5.00;;;3.30;;
40595;SDS011;26304;48.794;9.820;2023-06-22T18:52:17;7.55;;;3.35;;
40595;SDS011;26304;48.794;9.820;2023-06-22T18:58:13;6.88;;;2.72;;
40595;SDS011;26304;48.794;9.820;2023-06-22T19:03:56;3.50;;;2.63;;
40595;SDS011;26304;48.794;9.820;2023-06-22T19:09:42;4.22;;;2.78;;
40595;SDS011;26304;48.794;9.820;2023-06-22T19:16:06;5.63;;;2.75;;
40595;SDS011;26304;48.794;9.820;2023-06-22T19:21:57;4.53;;;2.40;;
40595;SDS011;26304;48.794;9.820;2023-06-22T19:27:40;7.00;;;3.33;;
40595;SDS011;26304;48.794;9.820;2023-06-22T19:33:25;6.80;;;3.08;;
40595;SDS011;26304;48.794;9.820;2023-06-22T19:39:07;3.90;;;2.53;;
40595;SDS011;26304;48.794;9.820;2023-06-22T19:44:50;6.22;;;2.58;;
40595;SDS011;26304;48.794;9.820;2023-06-22T19:50:34;7.13;;;2.75;;
40595;SDS011;26304;48.794;9.820;2023-06-22T19:56:20;3.17;;;2.47;;
40595;SDS011;26304;48.794;9.820;2023-06-22T20:02:02;5.95;;;2.80;;
40595;SDS011;26304;48.794;9.820;2023-06-22T20:07:50;5.25;;;2.53;;
40595;SDS011;26304;48.794;9.820;2023-06-22T20:13:32;5.18;;;2.47;;
40595;SDS011;26304;48.794;9.820;2023-06-22T20:19:15;4.85;;;2.67;;
40595;SDS011;26304;48.794;9.820;2023-06-22T20:25:01;4.13;;;2.53;;
40595;SDS011;26304;48.794;9.820;2023-06-22T20:36:45;4.78;;;2.58;;
40595;SDS011;26304;48.794;9.820;2023-06-22T20:42:29;3.85;;;2.75;;
40595;SDS011;26304;48.794;9.820;2023-06-22T20:48:12;4.70;;;2.72;;
40595;SDS011;26304;48.794;9.820;2023-06-22T20:53:54;5.15;;;2.78;;
40595;SDS011;26304;48.794;9.820;2023-06-22T20:59:38;4.32;;;2.55;;
40595;SDS011;26304;48.794;9.820;2023-06-22T21:05:21;4.95;;;2.60;;
40595;SDS011;26304;48.794;9.820;2023-06-22T21:11:04;7.82;;;3.00;;
40595;SDS011;26304;48.794;9.820;2023-06-22T21:16:48;7.95;;;3.30;;
40595;SDS011;26304;48.794;9.820;2023-06-22T21:22:31;3.58;;;2.92;;
40595;SDS011;26304;48.794;9.820;2023-06-22T21:28:13;4.07;;;2.60;;
40595;SDS011;26304;48.794;9.820;2023-06-22T21:33:59;4.55;;;3.13;;
40595;SDS011;26304;48.794;9.820;2023-06-22T21:45:25;4.22;;;2.70;;
40595;SDS011;26304;48.794;9.820;2023-06-22T21:51:09;3.47;;;2.88;;
40595;SDS011;26304;48.794;9.820;2023-06-22T21:56:52;3.72;;;2.60;;
40595;SDS011;26304;48.794;9.820;2023-06-22T22:02:34;4.95;;;3.30;;
40595;SDS011;26304;48.794;9.820;2023-06-22T22:08:18;5.00;;;2.70;;
40595;SDS011;26304;48.794;9.820;2023-06-22T22:14:01;3.88;;;3.03;;
40595;SDS011;26304;48.794;9.820;2023-06-22T22:19:44;5.88;;;2.85;;
40595;SDS011;26304;48.794;9.820;2023-06-22T22:25:28;4.78;;;3.10;;
40595;SDS011;26304;48.794;9.820;2023-06-22T22:31:11;6.22;;;3.00;;
40595;SDS011;26304;48.794;9.820;2023-06-22T22:36:54;4.68;;;3.03;;
40595;SDS011;26304;48.794;9.820;2023-06-22T22:42:38;5.13;;;3.00;;
40595;SDS011;26304;48.794;9.820;2023-06-22T22:48:20;3.35;;;2.67;;
40595;SDS011;26304;48.794;9.820;2023-06-22T22:54:03;4.18;;;2.60;;
40595;SDS011;26304;48.794;9.820;2023-06-22T22:59:49;2.60;;;2.40;;
40595;SDS011;26304;48.794;9.820;2023-06-22T23:05:31;2.50;;;2.30;;
40595;SDS011;26304;48.794;9.820;2023-06-22T23:11:15;1.92;;;1.50;;
40595;SDS011;26304;48.794;9.820;2023-06-22T23:16:59;2.30;;;1.40;;
40595;SDS011;26304;48.794;9.820;2023-06-22T23:22:42;1.15;;;1.05;;
40595;SDS011;26304;48.794;9.820;2023-06-22T23:28:24;2.30;;;0.93;;
40595;SDS011;26304;48.794;9.820;2023-06-22T23:34:08;1.33;;;0.85;;
40595;SDS011;26304;48.794;9.820;2023-06-22T23:39:51;0.75;;;0.73;;
40595;SDS011;26304;48.794;9.820;2023-06-22T23:45:34;1.10;;;1.00;;
40595;SDS011;26304;48.794;9.820;2023-06-22T23:51:18;1.23;;;1.10;;
40595;SDS011;26304;48.794;9.820;2023-06-22T23:57:00;1.60;;;1.10;;
